Terminal Aerodrome Forecast
Issued by NWS Lubbock, TX

Home | Current Version | Previous Version | Text Only | Print | Product List | Glossary On
Versions: 1 2 3 4 5 6 7 8 9 10 11 12 13 14 15 16
000
FTUS44 KLUB 241141
TAFLBB
TAF
KLBB 241141Z 2412/2512 15011KT P6SM SCT008 BKN015 OVC040
      TEMPO 2412/2415 -SHRA BKN008
     FM241900 17015KT P6SM SHRA SCT025 BKN035=

USA.gov is the U.S. government's official web portal to all federal, state and local government web resources and services.